Time;durP1;ratioP1;P1;durP2;ratioP2;P2;SDS_P1;SDS_P2;PMS_P1;PMS_P2;Temp;Humidity;BMP_temperature;BMP_pressure;BME280_temperature;BME280_humidity;BME280_pressure;Samples;Min_cycle;Max_cycle;Signal;HPM_P1;HPM_P2
2023/12/07 00:01:06;;;;;;;0.20;0.20;;;;;;;3.56;84.77;101265.25;4809857;29;20034;-91
2023/12/07 00:03:31;;;;;;;0.20;0.20;;;;;;;3.55;84.00;101261.00;4810020;29;20040;-91
2023/12/07 00:05:57;;;;;;;0.10;0.10;;;;;;;3.47;84.82;101256.81;4840674;29;20398;-90
2023/12/07 00:08:22;;;;;;;0.10;0.10;;;;;;;3.50;85.43;101264.47;4809560;29;20077;-88
2023/12/07 00:10:48;;;;;;;0.20;0.20;;;;;;;3.48;85.04;101267.03;4809300;29;20042;-89
2023/12/07 00:13:13;;;;;;;0.10;0.10;;;;;;;3.47;85.33;101264.50;4824722;29;20485;-90
2023/12/07 00:15:39;;;;;;;0.20;0.20;;;;;;;3.54;85.52;101264.44;4840974;29;20065;-89
2023/12/07 00:18:04;;;;;;;0.20;0.20;;;;;;;3.39;86.03;101267.97;4824964;29;20034;-90
2023/12/07 00:20:30;;;;;;;0.20;0.20;;;;;;;3.36;86.27;101257.78;4824815;29;20071;-91
2023/12/07 00:22:56;;;;;;;0.20;0.20;;;;;;;3.50;85.83;101269.56;4824507;29;20034;-90
2023/12/07 00:25:21;;;;;;;0.10;0.10;;;;;;;3.50;85.64;101270.41;4809153;29;20034;-90
2023/12/07 00:27:48;;;;;;;0.10;0.10;;;;;;;3.52;85.58;101278.91;4809470;29;20029;-90
2023/12/07 00:30:13;;;;;;;0.20;0.20;;;;;;;3.42;85.38;101256.84;4809511;29;20034;-90
2023/12/07 00:32:43;;;;;;;0.20;0.20;;;;;;;3.48;85.44;101282.38;4840693;29;20041;-91
2023/12/07 00:35:08;;;;;;;0.10;0.10;;;;;;;3.49;85.67;101283.22;4810421;29;20048;-89
2023/12/07 00:37:34;;;;;;;0.20;0.20;;;;;;;3.49;85.64;101263.59;4824793;29;20038;-92
2023/12/07 00:39:59;;;;;;;0.20;0.20;;;;;;;3.61;85.38;101283.94;4824067;29;20037;-92
2023/12/07 00:42:25;;;;;;;0.20;0.20;;;;;;;3.63;85.57;101271.97;4824557;29;20080;-91
2023/12/07 00:44:50;;;;;;;0.10;0.10;;;;;;;3.77;85.13;101278.69;4794100;29;20030;-90
2023/12/07 00:47:16;;;;;;;0.20;0.20;;;;;;;3.86;84.93;101286.28;4840633;29;20041;-90
2023/12/07 00:49:42;;;;;;;0.20;0.20;;;;;;;3.95;84.12;101283.63;4840734;29;20485;-92
2023/12/07 00:52:08;;;;;;;0.10;0.10;;;;;;;4.03;84.02;101281.78;4809693;29;20421;-92
2023/12/07 00:54:34;;;;;;;0.17;0.17;;;;;;;4.02;83.92;101274.97;4808992;29;20034;-91
2023/12/07 00:56:59;;;;;;;0.20;0.20;;;;;;;3.84;84.42;101281.19;4809213;29;20062;-90
2023/12/07 00:59:25;;;;;;;0.10;0.10;;;;;;;3.88;84.34;101282.81;4809376;29;20037;-88
2023/12/07 01:01:50;;;;;;;0.20;0.20;;;;;;;3.92;84.33;101283.63;4809139;29;20489;-91
2023/12/07 01:04:17;;;;;;;0.20;0.20;;;;;;;4.01;84.16;101283.53;4824461;29;20058;-91
2023/12/07 01:06:43;;;;;;;0.20;0.20;;;;;;;4.05;83.54;101280.09;4824517;29;20034;-91
2023/12/07 01:09:13;;;;;;;0.20;0.20;;;;;;;4.05;83.31;101280.09;4809041;29;20041;-92
2023/12/07 01:11:40;;;;;;;0.20;0.20;;;;;;;4.09;83.41;101286.84;4810256;29;20059;-90
2023/12/07 01:14:05;;;;;;;0.20;0.20;;;;;;;3.94;83.15;101285.34;4824556;29;20031;-91
2023/12/07 01:16:31;;;;;;;0.20;0.20;;;;;;;3.86;83.75;101291.41;4824283;29;20036;-91
2023/12/07 01:18:57;;;;;;;0.10;0.10;;;;;;;3.79;84.23;101282.06;4824099;29;20029;-91
2023/12/07 01:21:23;;;;;;;0.10;0.10;;;;;;;3.69;84.58;101286.44;4824297;29;20045;-89
2023/12/07 01:23:49;;;;;;;0.10;0.10;;;;;;;3.84;84.98;101291.41;4826411;29;20029;-91
2023/12/07 01:26:14;;;;;;;0.20;0.20;;;;;;;3.97;84.04;101287.00;4797115;29;20125;-91
2023/12/07 01:28:40;;;;;;;0.10;0.10;;;;;;;3.83;84.31;101269.22;4812219;29;20029;-91
2023/12/07 01:31:05;;;;;;;0.17;0.17;;;;;;;3.65;84.75;101272.84;4827385;29;20938;-91
2023/12/07 01:33:31;;;;;;;0.10;0.10;;;;;;;3.61;85.27;101283.94;4827184;29;20086;-92
2023/12/07 01:35:56;;;;;;;0.20;0.20;;;;;;;3.61;85.76;101283.94;4812092;29;20030;-90
2023/12/07 01:38:22;;;;;;;0.20;0.20;;;;;;;3.63;85.64;101281.38;4827162;29;20061;-91
2023/12/07 01:40:48;;;;;;;0.20;0.20;;;;;;;3.70;85.39;101276.19;4827236;29;20058;-90
2023/12/07 01:43:14;;;;;;;0.20;0.20;;;;;;;3.73;84.90;101281.25;4812230;29;20053;-91
2023/12/07 01:45:39;;;;;;;0.20;0.20;;;;;;;3.66;85.15;101246.38;4843220;29;20043;-91
2023/12/07 01:48:05;;;;;;;0.10;0.10;;;;;;;3.60;85.54;101261.78;4842873;29;20070;-91
2023/12/07 01:50:31;;;;;;;0.20;0.20;;;;;;;3.72;85.27;101277.00;4843218;29;20040;-90
2023/12/07 01:53:01;;;;;;;0.20;0.20;;;;;;;3.67;85.38;101268.56;4826561;29;20030;-91
2023/12/07 01:55:27;;;;;;;0.20;0.20;;;;;;;3.66;85.05;101277.09;4796580;29;20040;-91
2023/12/07 01:57:52;;;;;;;0.20;0.20;;;;;;;3.58;85.22;101268.63;4796599;29;20030;-92
2023/12/07 02:00:18;;;;;;;0.20;0.20;;;;;;;3.57;86.18;101274.63;4826329;29;20038;-88
2023/12/07 02:02:44;;;;;;;0.20;0.20;;;;;;;3.57;85.81;101266.94;4826739;29;20030;-90
2023/12/07 02:05:10;;;;;;;0.20;0.20;;;;;;;3.59;85.54;101259.25;4842722;29;20493;-91
2023/12/07 02:07:35;;;;;;;0.20;0.20;;;;;;;3.68;85.65;101269.41;4811447;29;20030;-91
2023/12/07 02:10:01;;;;;;;0.10;0.10;;;;;;;3.64;85.75;101268.59;4826581;29;20041;-90
2023/12/07 02:12:29;;;;;;;0.20;0.20;;;;;;;3.60;86.13;101264.34;4826496;29;20037;-90
2023/12/07 02:14:55;;;;;;;0.20;0.20;;;;;;;3.65;86.47;101262.59;4812052;29;20037;-91
2023/12/07 02:17:52;;;;;;;0.20;0.20;;;;;;;3.55;86.86;101255.88;4826596;29;20054;-91
2023/12/07 02:20:24;;;;;;;0.20;0.20;;;;;;;3.64;86.52;101262.63;4811924;29;20034;-92
2023/12/07 02:22:54;;;;;;;0.20;0.20;;;;;;;3.65;86.51;101257.50;4826705;29;20520;-89
2023/12/07 02:25:24;;;;;;;0.20;0.20;;;;;;;3.76;86.65;101261.66;4811508;29;20034;-92
2023/12/07 02:27:49;;;;;;;0.20;0.20;;;;;;;3.78;86.75;101270.16;4811287;29;20193;-92
2023/12/07 02:30:15;;;;;;;0.20;0.20;;;;;;;3.74;86.65;101265.06;4811346;29;20113;-91
2023/12/07 02:32:41;;;;;;;0.20;0.20;;;;;;;3.76;86.49;101251.41;4811117;29;20038;-92
2023/12/07 02:35:08;;;;;;;0.20;0.20;;;;;;;3.92;86.09;101268.28;4809388;29;20121;-89
2023/12/07 02:37:39;;;;;;;0.10;0.10;;;;;;;3.73;85.91;101245.44;4811217;29;20053;-90
2023/12/07 02:40:10;;;;;;;0.20;0.20;;;;;;;3.93;85.87;101264.84;4812081;29;20076;-91
2023/12/07 02:42:35;;;;;;;0.20;0.20;;;;;;;3.85;85.90;101266.66;4790580;29;20141;-92
2023/12/07 02:45:02;;;;;;;0.20;0.20;;;;;;;3.79;86.17;101262.44;4789623;29;20533;-90
2023/12/07 02:47:27;;;;;;;0.20;0.20;;;;;;;3.67;86.08;101237.00;4789823;29;20027;-91
2023/12/07 02:49:53;;;;;;;0.20;0.20;;;;;;;3.72;86.02;101248.84;4789475;29;20116;-90
2023/12/07 02:52:18;;;;;;;0.20;0.20;;;;;;;3.59;86.95;101266.94;4804848;29;20495;-90
2023/12/07 02:54:44;;;;;;;0.20;0.20;;;;;;;3.65;86.99;101270.28;4804791;29;20050;-92
2023/12/07 02:57:09;;;;;;;0.20;0.20;;;;;;;3.59;87.31;101249.88;4789536;29;20035;-91
2023/12/07 02:59:35;;;;;;;0.20;0.20;;;;;;;3.66;87.10;101274.53;4805606;29;20091;-89
2023/12/07 03:02:00;;;;;;;0.20;0.20;;;;;;;3.41;86.81;101240.66;4805555;29;20035;-91
2023/12/07 03:04:26;;;;;;;0.20;0.20;;;;;;;3.54;87.28;101278.91;4804173;29;20063;-91
2023/12/07 03:06:51;;;;;;;0.10;0.10;;;;;;;3.35;87.76;101250.97;4789229;29;20477;-90
2023/12/07 03:09:17;;;;;;;0.20;0.20;;;;;;;3.61;88.10;101283.94;4804389;29;20399;-91
2023/12/07 03:11:42;;;;;;;0.20;0.20;;;;;;;3.69;87.52;101278.75;4789558;29;20513;-92
2023/12/07 03:14:08;;;;;;;0.20;0.20;;;;;;;3.68;87.40;101283.03;4789147;29;20038;-90
2023/12/07 03:16:33;;;;;;;0.10;0.10;;;;;;;3.64;87.67;101266.03;4789249;29;20046;-92
2023/12/07 03:19:01;;;;;;;0.10;0.10;;;;;;;3.75;87.65;101286.38;4803958;29;20043;-90
2023/12/07 03:21:27;;;;;;;0.20;0.20;;;;;;;3.79;87.74;101284.63;4789313;29;20035;-90
2023/12/07 03:23:52;;;;;;;0.10;0.10;;;;;;;3.84;87.30;101282.88;4789118;29;20068;-88
2023/12/07 03:26:18;;;;;;;0.20;0.20;;;;;;;3.77;87.28;101289.78;4804305;29;20112;-90
2023/12/07 03:28:43;;;;;;;0.10;0.10;;;;;;;3.65;87.43;101272.84;4804084;29;20035;-90
2023/12/07 03:31:09;;;;;;;0.20;0.20;;;;;;;3.82;87.33;101287.16;4789033;29;20475;-91
2023/12/07 03:33:34;;;;;;;0.10;0.10;;;;;;;3.88;87.67;101293.06;4788880;29;20463;-89
2023/12/07 03:36:00;;;;;;;0.20;0.20;;;;;;;3.87;87.25;101285.41;4804056;29;20124;-91
2023/12/07 03:38:25;;;;;;;0.10;0.10;;;;;;;3.93;87.19;101287.88;4788947;29;20497;-92
2023/12/07 03:40:51;;;;;;;0.17;0.17;;;;;;;3.92;86.75;101287.03;4790638;29;20043;-89
2023/12/07 03:43:19;;;;;;;0.20;0.20;;;;;;;4.00;86.73;101297.19;4810139;29;20029;-91
2023/12/07 03:45:44;;;;;;;0.20;0.20;;;;;;;3.99;87.36;101296.34;4794451;29;20462;-90
2023/12/07 03:48:10;;;;;;;0.20;0.20;;;;;;;4.08;86.73;101294.56;4794629;29;20071;-90
2023/12/07 03:50:35;;;;;;;0.20;0.20;;;;;;;4.05;86.21;101298.00;4809896;29;20034;-92
2023/12/07 03:53:01;;;;;;;0.20;0.20;;;;;;;4.11;86.70;101300.47;4809815;29;20393;-91
2023/12/07 03:55:27;;;;;;;0.10;0.10;;;;;;;4.07;86.46;101298.00;4825074;29;20076;-89
2023/12/07 03:57:52;;;;;;;0.20;0.20;;;;;;;4.02;86.37;101285.22;4809942;29;20065;-91
2023/12/07 04:00:18;;;;;;;0.20;0.20;;;;;;;4.12;86.65;101291.09;4841005;29;20082;-90
2023/12/07 04:02:43;;;;;;;0.20;0.20;;;;;;;4.11;86.63;101289.38;4824059;29;20091;-89
2023/12/07 04:05:09;;;;;;;0.20;0.20;;;;;;;4.12;86.57;101297.06;4808960;29;20042;-88
2023/12/07 04:07:34;;;;;;;0.20;0.20;;;;;;;4.03;86.31;101277.53;4809284;29;20034;-89
2023/12/07 04:10:00;;;;;;;0.20;0.20;;;;;;;4.18;86.56;101296.16;4840368;29;20061;-88
2023/12/07 04:12:25;;;;;;;0.20;0.20;;;;;;;4.11;86.12;101285.13;4809440;29;20572;-86
2023/12/07 04:14:51;;;;;;;0.20;0.20;;;;;;;4.12;86.19;101302.16;4809464;29;20056;-89
2023/12/07 04:17:17;;;;;;;0.10;0.10;;;;;;;4.08;86.83;101310.75;4809431;29;20409;-90
2023/12/07 04:19:43;;;;;;;0.20;0.20;;;;;;;4.12;86.66;101316.69;4824913;29;20034;-91
2023/12/07 04:22:08;;;;;;;0.20;0.20;;;;;;;4.17;86.76;101320.06;4824660;29;20086;-89
2023/12/07 04:24:34;;;;;;;0.20;0.20;;;;;;;4.15;86.32;101320.09;4809423;29;20034;-90
2023/12/07 04:26:59;;;;;;;0.20;0.20;;;;;;;4.10;86.92;101313.31;4809250;29;20421;-90
2023/12/07 04:29:25;;;;;;;0.20;0.20;;;;;;;4.06;87.06;101303.97;4824878;29;20559;-90
2023/12/07 04:31:50;;;;;;;0.10;0.10;;;;;;;4.20;86.75;101331.09;4824348;29;20481;-92
2023/12/07 04:34:16;;;;;;;0.20;0.20;;;;;;;4.12;86.61;101317.53;4806606;29;20117;-91
2023/12/07 04:36:41;;;;;;;0.20;0.20;;;;;;;4.14;86.46;101320.09;4824013;29;20065;-89
2023/12/07 04:39:08;;;;;;;0.10;0.10;;;;;;;4.12;86.93;101332.06;4824061;29;20038;-90
2023/12/07 04:41:33;;;;;;;0.10;0.10;;;;;;;4.09;87.50;101340.63;4823735;29;20092;-91
2023/12/07 04:43:59;;;;;;;0.20;0.20;;;;;;;4.08;87.72;101325.28;4824182;29;20034;-90
2023/12/07 04:46:24;;;;;;;0.20;0.20;;;;;;;4.23;87.14;101336.22;4823756;29;20507;-90
2023/12/07 04:48:50;;;;;;;0.20;0.20;;;;;;;4.19;87.38;101342.22;4824083;29;20046;-90
2023/12/07 04:51:15;;;;;;;0.20;0.20;;;;;;;4.19;87.39;101344.78;4824033;29;20486;-90
2023/12/07 04:53:41;;;;;;;0.20;0.20;;;;;;;4.29;87.80;101348.94;4823957;29;20446;-90
2023/12/07 04:56:07;;;;;;;0.20;0.20;;;;;;;4.26;87.28;101335.31;4823672;29;20062;-89
2023/12/07 04:58:33;;;;;;;0.10;0.10;;;;;;;4.37;87.24;101333.47;4826377;29;20030;-89
2023/12/07 05:00:59;;;;;;;0.20;0.20;;;;;;;4.54;86.77;101335.84;4827253;29;20082;-91
2023/12/07 05:03:24;;;;;;;0.20;0.20;;;;;;;4.59;86.22;101336.63;4843328;29;20046;-90
2023/12/07 05:05:50;;;;;;;0.20;0.20;;;;;;;4.55;86.20;101335.81;4842839;29;20041;-92
2023/12/07 05:08:16;;;;;;;0.20;0.20;;;;;;;4.57;85.88;101330.66;4828495;29;20549;-90
2023/12/07 05:10:41;;;;;;;0.10;0.10;;;;;;;4.67;86.11;101339.09;4827896;29;20037;-90
2023/12/07 05:13:07;;;;;;;0.20;0.20;;;;;;;4.71;85.65;101349.25;4828329;29;20037;-89
2023/12/07 05:15:32;;;;;;;0.20;0.20;;;;;;;4.54;85.79;101315.34;4827745;29;20030;-91
2023/12/07 05:17:58;;;;;;;0.20;0.20;;;;;;;4.68;85.81;101339.06;4843227;29;20022;-91
2023/12/07 05:20:24;;;;;;;0.10;0.10;;;;;;;4.55;85.79;101317.88;4827626;29;20045;-91
2023/12/07 05:22:50;;;;;;;0.20;0.20;;;;;;;4.74;85.71;101348.41;4843614;29;20048;-90
2023/12/07 05:25:15;;;;;;;0.20;0.20;;;;;;;4.85;85.03;101352.50;4808130;29;20538;-86
2023/12/07 05:27:41;;;;;;;0.10;0.10;;;;;;;4.85;84.86;101344.81;4823866;29;20036;-87
2023/12/07 05:30:07;;;;;;;0.20;0.20;;;;;;;4.85;85.15;101360.19;4849157;29;20030;-92
2023/12/07 05:32:33;;;;;;;0.10;0.10;;;;;;;4.82;84.74;101354.28;4825961;29;20125;-85
2023/12/07 05:34:58;;;;;;;0.20;0.20;;;;;;;4.73;85.08;101362.94;4825127;29;20109;-86
2023/12/07 05:37:24;;;;;;;0.20;0.20;;;;;;;4.73;85.23;101362.09;4825408;29;20069;-85
2023/12/07 05:39:50;;;;;;;0.17;0.17;;;;;;;4.70;85.34;101365.50;4807420;29;20051;-89
2023/12/07 05:42:15;;;;;;;0.20;0.20;;;;;;;4.78;85.56;101373.97;4817561;29;20061;-83
2023/12/07 05:44:41;;;;;;;0.20;0.20;;;;;;;4.77;85.94;101373.97;4826456;29;20109;-87
2023/12/07 05:47:07;;;;;;;0.20;0.20;;;;;;;4.83;85.81;101384.16;4806299;29;20042;-88
2023/12/07 05:49:33;;;;;;;0.20;0.20;;;;;;;4.80;85.75;101377.34;4793245;29;20030;-89
2023/12/07 05:51:59;;;;;;;0.20;0.20;;;;;;;4.87;86.10;101383.25;4843765;29;20037;-89
2023/12/07 05:54:24;;;;;;;0.20;0.20;;;;;;;4.93;86.00;101380.59;4825878;29;20418;-91
2023/12/07 05:56:50;;;;;;;0.20;0.20;;;;;;;4.89;85.57;101374.66;4795421;29;20533;-90
2023/12/07 05:59:15;;;;;;;0.10;0.10;;;;;;;4.89;85.31;101384.06;4831402;29;20026;-83
2023/12/07 06:01:41;;;;;;;0.20;0.20;;;;;;;4.98;85.20;101393.34;4823245;29;20090;-88
2023/12/07 06:04:10;;;;;;;0.20;0.20;;;;;;;4.95;85.00;101388.28;4793241;29;20033;-90
2023/12/07 06:06:35;;;;;;;0.10;0.10;;;;;;;4.94;84.77;101376.31;4820589;29;20128;-89
2023/12/07 06:09:01;;;;;;;0.20;0.20;;;;;;;5.03;85.45;101406.97;4824031;29;20245;-87
2023/12/07 06:11:27;;;;;;;0.20;0.20;;;;;;;4.95;85.33;101399.38;4821442;29;20030;-86
2023/12/07 06:13:52;;;;;;;0.20;0.20;;;;;;;4.97;85.13;101407.03;4793614;29;20041;-81
2023/12/07 06:16:18;;;;;;;0.10;0.10;;;;;;;5.01;84.93;101422.34;4809711;29;20501;-80
2023/12/07 06:18:44;;;;;;;0.20;0.20;;;;;;;4.95;85.30;101419.06;4809279;29;20138;-84
2023/12/07 06:21:09;;;;;;;0.20;0.20;;;;;;;4.96;85.58;101407.91;4840701;29;20126;-90
2023/12/07 06:23:35;;;;;;;0.20;0.20;;;;;;;4.93;85.66;101400.28;4824288;29;20033;-87
2023/12/07 06:26:01;;;;;;;0.20;0.20;;;;;;;5.06;85.77;101409.50;4808666;29;20030;-90
2023/12/07 06:28:27;;;;;;;0.20;0.20;;;;;;;5.10;85.38;101411.13;4827225;29;20030;-85
2023/12/07 06:30:53;;;;;;;0.20;0.20;;;;;;;5.15;84.96;101410.22;4825220;29;20504;-91
2023/12/07 06:33:18;;;;;;;0.10;0.10;;;;;;;5.15;85.04;101417.06;4828193;29;20089;-90
2023/12/07 06:35:46;;;;;;;0.20;0.20;;;;;;;5.17;84.97;101428.13;4823939;29;20030;-87
2023/12/07 06:38:12;;;;;;;0.20;0.20;;;;;;;5.19;85.32;101423.84;4804030;29;20030;-91
2023/12/07 06:40:37;;;;;;;0.10;0.10;;;;;;;5.19;85.31;101429.81;4822054;29;21111;-86
2023/12/07 06:43:03;;;;;;;0.10;0.10;;;;;;;5.23;84.86;101430.63;4819912;29;20054;-89
2023/12/07 06:45:28;;;;;;;0.20;0.20;;;;;;;5.30;84.61;101432.22;4820261;29;20086;-84
2023/12/07 06:47:54;;;;;;;0.20;0.20;;;;;;;5.31;84.61;101431.38;4821407;29;20201;-88
2023/12/07 06:50:19;;;;;;;0.20;0.20;;;;;;;5.26;84.33;101415.19;4825570;29;20038;-91
2023/12/07 06:52:45;;;;;;;0.20;0.20;;;;;;;5.38;84.13;101430.41;4815954;29;20030;-90
2023/12/07 06:55:10;;;;;;;0.20;0.20;;;;;;;5.38;84.32;101445.78;4821892;29;20049;-90
2023/12/07 06:57:36;;;;;;;0.20;0.20;;;;;;;5.39;83.89;101442.34;4797655;29;20042;-86
2023/12/07 07:00:05;;;;;;;0.10;0.10;;;;;;;5.31;84.46;101444.22;4837236;29;20038;-88
2023/12/07 07:02:31;;;;;;;0.10;0.10;;;;;;;5.31;84.56;101443.31;4838652;29;20038;-90
2023/12/07 07:04:56;;;;;;;0.20;0.20;;;;;;;5.24;84.51;101429.75;4807975;29;20532;-86
2023/12/07 07:07:22;;;;;;;0.10;0.10;;;;;;;5.35;84.81;101445.84;4804938;29;20035;-92
2023/12/07 07:09:47;;;;;;;0.20;0.20;;;;;;;5.36;84.18;101450.09;4829659;29;20037;-90
2023/12/07 07:12:13;;;;;;;0.10;0.10;;;;;;;5.34;84.09;101446.72;4819907;29;20034;-86
2023/12/07 07:14:38;;;;;;;0.20;0.20;;;;;;;5.19;83.95;101431.53;4820012;29;20034;-93
2023/12/07 07:17:04;;;;;;;0.10;0.10;;;;;;;5.16;83.61;101423.88;4814324;29;20070;-90
2023/12/07 07:19:30;;;;;;;0.20;0.20;;;;;;;5.11;83.81;101438.47;4822447;29;20038;-92
2023/12/07 07:21:55;;;;;;;0.10;0.10;;;;;;;5.21;83.80;101447.78;4844035;29;20088;-87
2023/12/07 07:24:21;;;;;;;0.20;0.20;;;;;;;5.14;84.26;101452.13;4814102;29;20526;-91
2023/12/07 07:26:47;;;;;;;0.20;0.20;;;;;;;4.98;84.64;101436.94;4817709;29;20130;-88
2023/12/07 07:29:12;;;;;;;0.20;0.20;;;;;;;4.96;84.79;101441.25;4832034;29;20033;-85
2023/12/07 07:31:38;;;;;;;0.10;0.10;;;;;;;5.04;85.31;101465.94;4816730;29;20711;-91
2023/12/07 07:34:04;;;;;;;0.20;0.20;;;;;;;5.06;85.17;101458.22;4822600;29;20439;-89
2023/12/07 07:36:30;;;;;;;0.20;0.20;;;;;;;4.96;85.13;101464.34;4835824;29;20041;-90
2023/12/07 07:38:55;;;;;;;0.20;0.20;;;;;;;4.94;85.24;101463.50;4817426;29;20034;-90
2023/12/07 07:41:21;;;;;;;0.10;0.10;;;;;;;5.01;85.07;101472.81;4820008;29;20073;-88
2023/12/07 07:43:46;;;;;;;0.20;0.20;;;;;;;4.92;84.95;101444.72;4822389;29;20041;-92
2023/12/07 07:46:12;;;;;;;0.10;0.10;;;;;;;4.90;84.66;101444.72;4823452;29;20077;-91
2023/12/07 07:48:39;;;;;;;0.20;0.20;;;;;;;5.10;85.03;101470.97;4802662;29;20489;-91
2023/12/07 07:51:04;;;;;;;0.20;0.20;;;;;;;5.05;84.54;101464.22;4816951;29;20034;-87
2023/12/07 07:53:30;;;;;;;0.20;0.20;;;;;;;4.95;84.26;101442.97;4816992;29;20086;-90
2023/12/07 07:55:55;;;;;;;0.20;0.20;;;;;;;4.98;85.32;101472.84;4820092;29;20057;-83
2023/12/07 07:58:21;;;;;;;0.20;0.20;;;;;;;4.78;85.89;101456.00;4819741;29;20417;-85
2023/12/07 08:00:47;;;;;;;0.10;0.10;;;;;;;5.08;85.55;101482.13;4812653;29;20417;-90
2023/12/07 08:03:12;;;;;;;0.20;0.20;;;;;;;5.11;85.27;101487.22;4822250;29;20034;-84
2023/12/07 08:05:38;;;;;;;0.10;0.10;;;;;;;5.08;84.98;101484.69;4819988;29;20038;-82
2023/12/07 08:08:04;;;;;;;0.20;0.20;;;;;;;5.12;85.14;101488.94;4794479;29;20078;-85
2023/12/07 08:10:29;;;;;;;0.20;0.20;;;;;;;4.95;84.87;101460.91;4792362;29;20055;-84
2023/12/07 08:12:55;;;;;;;0.20;0.20;;;;;;;5.07;84.82;101490.69;4815944;29;20497;-85
2023/12/07 08:15:21;;;;;;;0.10;0.10;;;;;;;5.07;84.70;101471.03;4817576;29;20045;-82
2023/12/07 08:20:31;;;;;;;0.20;0.20;;;;;;;5.14;84.33;101506.00;4819064;29;20053;-81
2023/12/07 08:22:57;;;;;;;0.10;0.10;;;;;;;5.15;84.70;101510.25;4800445;29;20030;-84
2023/12/07 08:25:22;;;;;;;0.20;0.20;;;;;;;5.09;84.98;101509.47;4796917;29;20038;-82
2023/12/07 08:27:48;;;;;;;0.20;0.20;;;;;;;5.13;85.18;101500.88;4817549;29;20034;-89
2023/12/07 08:30:13;;;;;;;0.20;0.20;;;;;;;5.18;85.10;101519.63;4785395;29;20039;-90
2023/12/07 08:32:39;;;;;;;0.20;0.20;;;;;;;5.06;84.94;101514.63;4816422;29;20039;-88
2023/12/07 08:35:08;;;;;;;0.20;0.20;;;;;;;5.05;85.53;101512.94;4819262;29;20113;-86
2023/12/07 08:37:33;;;;;;;0.20;0.20;;;;;;;4.98;85.69;101509.59;4812300;29;20105;-85
2023/12/07 08:39:59;;;;;;;0.20;0.20;;;;;;;5.02;85.57;101513.00;4806693;29;20072;-85
2023/12/07 08:42:26;;;;;;;0.20;0.20;;;;;;;5.11;85.27;101523.13;4834701;29;20056;-83
2023/12/07 08:44:52;;;;;;;0.20;0.20;;;;;;;5.19;84.90;101532.41;4825773;29;20038;-83
2023/12/07 08:47:18;;;;;;;0.20;0.20;;;;;;;5.25;85.22;101535.78;4828512;29;20117;-86
2023/12/07 08:49:43;;;;;;;0.20;0.20;;;;;;;5.34;84.44;101541.66;4844649;29;20129;-91
2023/12/07 08:52:09;;;;;;;0.20;0.20;;;;;;;5.22;84.66;101531.56;4804691;29;20045;-93
2023/12/07 08:54:36;;;;;;;0.20;0.20;;;;;;;5.25;84.76;101531.50;4845889;29;20038;-91
2023/12/07 08:57:01;;;;;;;0.20;0.20;;;;;;;5.24;84.70;101529.81;4829080;29;20053;-93
2023/12/07 08:59:27;;;;;;;0.20;0.20;;;;;;;5.07;84.88;101498.38;4828831;29;20038;-85
2023/12/07 09:01:53;;;;;;;0.20;0.20;;;;;;;5.23;85.14;101533.25;4822877;29;20042;-84
2023/12/07 09:04:18;;;;;;;0.20;0.20;;;;;;;5.15;85.44;101520.50;4841689;29;20421;-87
2023/12/07 09:06:44;;;;;;;0.20;0.20;;;;;;;5.14;85.45;101528.22;4840910;29;20538;-84
2023/12/07 09:09:11;;;;;;;0.20;0.20;;;;;;;5.19;85.55;101526.44;4827211;29;20052;-90
2023/12/07 09:11:37;;;;;;;0.20;0.20;;;;;;;5.24;85.09;101534.09;4828782;29;20441;-84
2023/12/07 09:14:02;;;;;;;0.20;0.20;;;;;;;5.26;85.47;101535.75;4814756;29;20041;-90
2023/12/07 09:16:28;;;;;;;0.20;0.20;;;;;;;5.24;85.75;101532.38;4806305;29;20035;-85
2023/12/07 09:18:54;;;;;;;0.20;0.20;;;;;;;5.36;84.93;101528.81;4818435;29;20117;-90
2023/12/07 09:21:19;;;;;;;0.20;0.20;;;;;;;5.36;84.90;101527.09;4833591;29;20030;-89
2023/12/07 09:23:45;;;;;;;0.20;0.20;;;;;;;5.27;84.52;101508.38;4808395;29;20046;-86
2023/12/07 09:26:10;;;;;;;0.20;0.20;;;;;;;5.41;84.31;101534.75;4836420;29;20034;-86
2023/12/07 09:28:36;;;;;;;0.20;0.20;;;;;;;5.44;84.39;101532.97;4806345;29;20086;-90
2023/12/07 09:31:02;;;;;;;0.20;0.20;;;;;;;5.53;84.47;101541.41;4824632;29;20056;-89
2023/12/07 09:33:27;;;;;;;0.20;0.20;;;;;;;5.47;84.71;101532.91;4825298;29;20493;-90
2023/12/07 09:35:53;;;;;;;0.20;0.20;;;;;;;5.52;84.25;101534.59;4808388;29;20109;-81
2023/12/07 09:38:19;;;;;;;0.20;0.20;;;;;;;5.54;84.59;101531.13;4819746;29;20038;-82
2023/12/07 09:40:45;;;;;;;0.20;0.20;;;;;;;5.42;84.28;101485.97;4803559;29;20049;-81
2023/12/07 09:43:12;;;;;;;0.20;0.20;;;;;;;5.68;84.01;101526.63;4790776;29;20567;-85
2023/12/07 09:45:37;;;;;;;0.20;0.20;;;;;;;5.81;85.58;101529.91;4823627;29;20501;-85
2023/12/07 09:48:03;;;;;;;0.20;0.20;;;;;;;5.91;83.13;101528.91;4824148;29;20073;-89
2023/12/07 09:50:28;;;;;;;0.20;0.20;;;;;;;5.96;82.25;101532.25;4813342;29;20034;-91
2023/12/07 09:52:56;;;;;;;0.20;0.20;;;;;;;5.93;82.46;101529.72;4809512;29;20117;-89
2023/12/07 09:55:22;;;;;;;0.10;0.10;;;;;;;5.92;82.45;101530.59;4825496;29;20042;-89
2023/12/07 09:57:48;;;;;;;0.20;0.20;;;;;;;5.87;81.48;101532.34;4825500;29;20523;-88
2023/12/07 10:00:17;;;;;;;0.20;0.20;;;;;;;5.82;82.04;101529.03;4806813;29;20070;-86
2023/12/07 10:02:45;;;;;;;0.13;0.13;;;;;;;5.79;82.03;101523.91;4806467;29;20125;-84
2023/12/07 10:05:13;;;;;;;0.20;0.20;;;;;;;6.15;86.16;101532.81;4834268;29;20041;-87
2023/12/07 10:07:47;;;;;;;0.20;0.20;;;;;;;6.51;82.68;101528.78;4812121;29;20061;-90
2023/12/07 10:10:13;;;;;;;0.20;0.20;;;;;;;6.39;81.05;101521.28;4818570;29;20033;-83
2023/12/07 10:12:59;;;;;;;0.20;0.20;;;;;;;6.26;80.87;101528.34;4822896;29;20083;-80
2023/12/07 10:15:25;;;;;;;0.20;0.20;;;;;;;6.23;81.07;101523.25;4831743;29;20036;-90
2023/12/07 10:17:54;;;;;;;0.20;0.20;;;;;;;6.15;80.83;101529.38;4842142;29;20090;-89
2023/12/07 10:20:23;;;;;;;0.20;0.20;;;;;;;5.96;80.64;101511.69;4822875;29;20057;-89
2023/12/07 10:23:01;;;;;;;0.20;0.20;;;;;;;5.79;79.96;101500.78;4835597;29;20086;-86
2023/12/07 10:25:26;;;;;;;0.20;0.20;;;;;;;5.94;81.28;101521.16;4845908;29;20652;-84
2023/12/07 10:27:52;;;;;;;0.20;0.20;;;;;;;6.00;81.12;101531.34;4822280;29;20142;-90
2023/12/07 10:30:24;;;;;;;0.20;0.20;;;;;;;5.89;81.08;101515.19;4822345;29;20030;-87
2023/12/07 10:32:50;;;;;;;0.20;0.20;;;;;;;5.91;80.60;101523.78;4807940;29;20125;-82
2023/12/07 10:35:15;;;;;;;0.20;0.20;;;;;;;5.80;81.22;101487.13;4839910;29;20083;-86
2023/12/07 10:37:41;;;;;;;0.20;0.20;;;;;;;5.97;80.63;101528.81;4793019;29;20129;-88
2023/12/07 10:40:07;;;;;;;0.20;0.20;;;;;;;5.86;80.89;101501.56;4805795;29;20030;-83
2023/12/07 10:42:36;;;;;;;0.20;0.20;;;;;;;5.78;80.69;101506.81;4815996;29;20056;-80
2023/12/07 10:45:04;;;;;;;0.20;0.20;;;;;;;5.84;80.83;101513.59;4822412;29;20038;-82
2023/12/07 10:47:30;;;;;;;0.20;0.20;;;;;;;5.91;81.33;101516.06;4808305;29;20030;-85
2023/12/07 10:49:55;;;;;;;0.20;0.20;;;;;;;5.91;81.04;101515.22;4808008;29;20593;-85
2023/12/07 10:52:23;;;;;;;0.20;0.20;;;;;;;5.90;81.35;101528.88;4823491;29;20046;-85
2023/12/07 10:54:52;;;;;;;0.20;0.20;;;;;;;5.89;81.17;101527.19;4825195;29;20034;-83
2023/12/07 10:57:17;;;;;;;0.20;0.20;;;;;;;5.88;81.68;101521.19;4840584;29;20034;-84
2023/12/07 10:59:43;;;;;;;0.20;0.20;;;;;;;5.70;81.51;101488.09;4837141;29;20425;-81
2023/12/07 11:02:10;;;;;;;0.20;0.20;;;;;;;5.86;81.35;101524.69;4816969;29;20719;-85
2023/12/07 11:04:35;;;;;;;0.20;0.20;;;;;;;5.88;81.03;101526.34;4808859;29;20026;-86
2023/12/07 11:07:04;;;;;;;0.20;0.20;;;;;;;5.88;81.04;101526.34;4806707;29;20524;-91
2023/12/07 11:09:32;;;;;;;0.20;0.20;;;;;;;5.79;82.04;101521.34;4808229;29;20528;-87
2023/12/07 11:12:06;;;;;;;0.20;0.20;;;;;;;5.80;82.02;101502.53;4815251;29;20050;-87
2023/12/07 11:14:32;;;;;;;0.10;0.10;;;;;;;5.90;82.13;101511.81;4809486;29;20038;-89
2023/12/07 11:17:04;;;;;;;0.20;0.20;;;;;;;5.92;82.19;101517.78;5086327;27;1812672;-82
2023/12/07 11:19:29;;;;;;;0.20;0.20;;;;;;;5.95;82.50;101530.56;5105365;28;20101;-86
2023/12/07 11:21:59;;;;;;;0.20;0.20;;;;;;;5.76;82.12;101483.72;5106481;28;20073;-91
2023/12/07 11:24:25;;;;;;;0.20;0.20;;;;;;;5.92;81.59;101514.34;5113782;28;20500;-89
2023/12/07 11:26:54;;;;;;;0.20;0.20;;;;;;;5.84;81.73;101514.44;5106252;28;20051;-84
2023/12/07 11:29:21;;;;;;;0.20;0.20;;;;;;;5.80;80.96;101520.50;5096444;28;20110;-83
2023/12/07 11:31:47;;;;;;;0.20;0.20;;;;;;;5.81;81.55;101522.19;5109766;28;20497;-88